createdAt,value
2022-11-22T00:02:10.313Z,97514.79
2022-11-22T00:04:45.047Z,97513.23
2022-11-22T00:07:18.536Z,97509.05
2022-11-22T00:09:51.764Z,97509.61
2022-11-22T00:12:24.923Z,97511.54
2022-11-22T00:14:57.680Z,97512.06
2022-11-22T00:17:31.331Z,97515.39
2022-11-22T00:20:03.868Z,97512.45
2022-11-22T00:22:43.974Z,97511.95
2022-11-22T00:25:17.209Z,97508.67
2022-11-22T00:27:50.607Z,97505.89
2022-11-22T00:30:23.841Z,97511.63
2022-11-22T00:32:57.125Z,97508.81
2022-11-22T00:35:31.443Z,97512.82
2022-11-22T00:38:05.647Z,97517.87
2022-11-22T00:40:40.687Z,97524.63
2022-11-22T00:43:14.476Z,97528.43
2022-11-22T00:45:50.708Z,97537.79
2022-11-22T00:48:24.924Z,97538.83
2022-11-22T00:50:59.689Z,97549.05
2022-11-22T00:53:33.206Z,97555.15
2022-11-22T00:56:06.786Z,97557.61
2022-11-22T00:58:41.090Z,97561.11
2022-11-22T01:01:17.307Z,97559.24
2022-11-22T01:03:51.934Z,97554.77
2022-11-22T01:06:24.974Z,97552.71
2022-11-22T01:08:56.886Z,97552.05
2022-11-22T01:11:28.733Z,97543.02
2022-11-22T01:14:00.933Z,97543.71
2022-11-22T01:16:33.444Z,97543.06
2022-11-22T01:19:06.410Z,97537.59
2022-11-22T01:21:38.691Z,97533.06
2022-11-22T01:24:11.422Z,97520.91
2022-11-22T01:26:45.086Z,97523.36
2022-11-22T01:29:17.860Z,97523.18
2022-11-22T01:31:51.076Z,97519.69
2022-11-22T01:34:23.100Z,97519.71
2022-11-22T01:36:56.272Z,97513.79
2022-11-22T01:39:29.709Z,97513.45
2022-11-22T01:42:03.175Z,97513.60
2022-11-22T01:44:40.631Z,97511.31
2022-11-22T01:47:15.322Z,97506.38
2022-11-22T01:49:50.716Z,97505.60
2022-11-22T01:52:25.041Z,97510.58
2022-11-22T01:55:02.047Z,97503.15
2022-11-22T01:57:37.676Z,97501.85
2022-11-22T02:00:13.679Z,97501.99
2022-11-22T02:02:47.824Z,97502.84
2022-11-22T02:05:22.355Z,97506.48
2022-11-22T02:07:59.279Z,97502.48
2022-11-22T02:10:33.161Z,97500.34
2022-11-22T02:13:07.650Z,97496.38
2022-11-22T02:15:40.638Z,97492.26
2022-11-22T02:18:13.280Z,97492.66
2022-11-22T02:20:46.258Z,97489.00
2022-11-22T02:23:24.591Z,97488.33
2022-11-22T02:25:59.664Z,97488.52
2022-11-22T02:28:33.780Z,97491.99
2022-11-22T02:31:07.782Z,97495.66
2022-11-22T02:33:43.275Z,97501.34
2022-11-22T02:36:19.547Z,97492.56
2022-11-22T02:38:53.005Z,97482.80
2022-11-22T02:41:26.565Z,97482.42
2022-11-22T02:43:59.447Z,97472.84
2022-11-22T02:46:33.053Z,97466.62
2022-11-22T02:49:10.231Z,97468.89
2022-11-22T02:51:44.327Z,97473.41
2022-11-22T02:54:17.111Z,97467.64
2022-11-22T02:56:51.170Z,97472.92
2022-11-22T02:59:23.862Z,97466.36
2022-11-22T03:02:01.677Z,97465.30
2022-11-22T03:04:38.983Z,97466.66
2022-11-22T03:07:10.882Z,97472.67
2022-11-22T03:09:42.980Z,97464.62
2022-11-22T03:12:14.891Z,97468.73
2022-11-22T03:14:46.977Z,97470.78
2022-11-22T03:17:20.262Z,97465.34
2022-11-22T03:19:53.596Z,97469.61
2022-11-22T03:22:26.276Z,97468.92
2022-11-22T03:25:00.039Z,97472.16
2022-11-22T03:27:35.220Z,97476.75
2022-11-22T03:30:10.348Z,97473.80
2022-11-22T03:32:43.841Z,97471.73
2022-11-22T03:35:18.829Z,97464.41
2022-11-22T03:37:52.924Z,97457.45
2022-11-22T03:40:24.839Z,97459.05
2022-11-22T03:42:57.571Z,97455.59
2022-11-22T03:45:30.788Z,97458.16
2022-11-22T03:48:03.828Z,97457.14
2022-11-22T03:50:37.922Z,97459.95
2022-11-22T03:53:10.038Z,97464.10
2022-11-22T03:55:42.272Z,97466.15
2022-11-22T03:58:16.083Z,97466.48
2022-11-22T04:00:50.984Z,97468.85
2022-11-22T04:03:22.837Z,97467.59
2022-11-22T04:05:56.426Z,97467.20
2022-11-22T04:08:28.383Z,97466.83
2022-11-22T04:11:01.486Z,97467.27
2022-11-22T04:13:48.706Z,97462.31
2022-11-22T04:16:20.761Z,97461.32
2022-11-22T04:18:53.498Z,97461.60
2022-11-22T04:21:36.224Z,97462.91
2022-11-22T04:24:28.476Z,97459.48
2022-11-22T04:27:01.400Z,97456.57
2022-11-22T04:29:34.776Z,97452.52
2022-11-22T04:32:25.387Z,97453.02
2022-11-22T04:34:58.237Z,97452.29
2022-11-22T04:37:32.293Z,97453.90
2022-11-22T04:40:04.868Z,97454.36
2022-11-22T04:42:55.613Z,97451.52
2022-11-22T04:45:31.727Z,97449.98
2022-11-22T04:48:06.505Z,97450.31
2022-11-22T04:50:57.570Z,97447.44
2022-11-22T04:53:32.742Z,97442.53
2022-11-22T04:56:04.953Z,97445.33
2022-11-22T04:58:40.329Z,97445.59
2022-11-22T05:01:14.139Z,97441.48
2022-11-22T05:03:47.510Z,97440.08
2022-11-22T05:06:20.813Z,97442.98
2022-11-22T05:08:52.817Z,97443.16
2022-11-22T05:11:25.035Z,97445.41
2022-11-22T05:13:57.318Z,97450.13
2022-11-22T05:16:29.165Z,97445.02
2022-11-22T05:19:01.535Z,97440.94
2022-11-22T05:21:37.470Z,97443.07
2022-11-22T05:24:10.857Z,97442.02
2022-11-22T05:26:46.152Z,97448.73
2022-11-22T05:29:19.601Z,97443.50
2022-11-22T05:31:52.228Z,97440.20
2022-11-22T05:34:23.983Z,97442.27
2022-11-22T05:36:58.814Z,97443.96
2022-11-22T05:39:30.839Z,97440.98
2022-11-22T05:42:06.538Z,97446.30
2022-11-22T05:44:42.873Z,97448.36
2022-11-22T05:47:15.733Z,97444.67
2022-11-22T05:49:49.322Z,97446.77
2022-11-22T05:52:21.427Z,97447.42
2022-11-22T05:54:53.298Z,97448.92
2022-11-22T05:57:26.297Z,97449.64
2022-11-22T05:59:59.468Z,97456.88
2022-11-22T06:02:35.640Z,97461.81
2022-11-22T06:05:10.117Z,97466.48
2022-11-22T06:07:44.973Z,97462.80
2022-11-22T06:10:17.443Z,97463.56
2022-11-22T06:12:54.155Z,97464.60
2022-11-22T06:15:26.156Z,97465.11
2022-11-22T06:17:59.824Z,97467.69
2022-11-22T06:20:32.974Z,97469.11
2022-11-22T06:23:09.907Z,97467.80
2022-11-22T06:25:44.727Z,97473.18
2022-11-22T06:28:16.739Z,97477.45
2022-11-22T06:30:50.939Z,97475.77
2022-11-22T06:33:24.499Z,97472.93
2022-11-22T06:35:56.399Z,97463.57
2022-11-22T06:38:29.230Z,97474.21
2022-11-22T06:41:06.308Z,97479.69
2022-11-22T06:43:48.017Z,97483.62
2022-11-22T06:46:23.824Z,97483.85
2022-11-22T06:48:56.100Z,97482.75
2022-11-22T06:51:32.234Z,97484.67
2022-11-22T06:54:04.502Z,97489.58
2022-11-22T06:56:41.714Z,97493.20
2022-11-22T06:59:14.241Z,97499.48
2022-11-22T07:01:46.226Z,97499.02
2022-11-22T07:04:19.381Z,97498.27
2022-11-22T07:06:53.119Z,97495.42
2022-11-22T07:09:26.555Z,97494.69
2022-11-22T07:12:02.475Z,97492.55
2022-11-22T07:14:34.606Z,97490.55
2022-11-22T07:17:06.516Z,97487.52
2022-11-22T07:19:38.680Z,97488.81
2022-11-22T07:22:10.592Z,97494.48
2022-11-22T07:24:43.790Z,97496.41
2022-11-22T07:27:16.528Z,97493.38
2022-11-22T07:29:48.857Z,97490.54
2022-11-22T07:32:20.975Z,97489.64
2022-11-22T07:34:53.502Z,97494.98
2022-11-22T07:37:25.548Z,97501.06
2022-11-22T07:39:57.434Z,97506.69
2022-11-22T07:42:29.475Z,97504.74
2022-11-22T07:45:02.511Z,97503.85
2022-11-22T07:47:34.687Z,97507.65
2022-11-22T07:50:09.176Z,97505.35
2022-11-22T07:52:42.137Z,97508.91
2022-11-22T07:55:14.841Z,97501.59
2022-11-22T07:57:49.355Z,97497.55
2022-11-22T08:00:22.387Z,97495.01
2022-11-22T08:02:55.064Z,97493.34
2022-11-22T08:05:27.703Z,97493.64
2022-11-22T08:08:01.390Z,97494.08
2022-11-22T08:10:33.688Z,97494.86
2022-11-22T08:13:06.402Z,97498.84
2022-11-22T08:15:38.671Z,97501.06
2022-11-22T08:18:10.877Z,97496.71
2022-11-22T08:20:43.380Z,97493.60
2022-11-22T08:23:18.175Z,97493.09
2022-11-22T08:25:50.928Z,97490.92
2022-11-22T08:28:23.358Z,97490.16
2022-11-22T08:31:02.283Z,97485.55
2022-11-22T08:33:34.859Z,97489.53
2022-11-22T08:36:10.599Z,97488.40
2022-11-22T08:38:43.097Z,97486.69
2022-11-22T08:41:15.268Z,97484.11
2022-11-22T08:43:47.630Z,97484.89
2022-11-22T08:46:20.962Z,97481.77
2022-11-22T08:48:56.129Z,97477.64
2022-11-22T08:51:28.340Z,97475.77
2022-11-22T08:54:01.491Z,97473.87
2022-11-22T08:56:35.118Z,97475.48
2022-11-22T08:59:09.823Z,97471.19
2022-11-22T09:01:43.627Z,97478.38
2022-11-22T09:04:16.406Z,97472.98
2022-11-22T09:09:45.299Z,97476.17
2022-11-22T09:12:17.959Z,97471.65
2022-11-22T09:14:50.540Z,97472.01
2022-11-22T09:17:23.395Z,97468.54
2022-11-22T09:19:57.475Z,97466.62
2022-11-22T09:22:30.625Z,97459.96
2022-11-22T09:25:05.508Z,97459.41
2022-11-22T09:27:37.826Z,97458.00
2022-11-22T09:30:14.826Z,97457.80
2022-11-22T09:32:49.621Z,97459.70
2022-11-22T09:35:21.665Z,97461.61
2022-11-22T09:37:54.672Z,97460.19
2022-11-22T09:40:27.089Z,97453.19
2022-11-22T09:43:09.637Z,97445.46
2022-11-22T09:46:06.642Z,97454.31
2022-11-22T09:48:57.010Z,97453.59
2022-11-22T09:51:34.059Z,97454.65
2022-11-22T09:54:09.390Z,97453.72
2022-11-22T09:56:43.017Z,97447.38
2022-11-22T09:59:16.670Z,97448.85
2022-11-22T10:01:51.925Z,97448.23
2022-11-22T10:04:29.789Z,97445.72
2022-11-22T10:07:05.048Z,97447.17
2022-11-22T10:09:41.034Z,97441.89
2022-11-22T10:12:19.722Z,97443.02
2022-11-22T10:14:55.407Z,97445.20
2022-11-22T10:17:43.913Z,97445.33
2022-11-22T10:20:18.271Z,97440.96
2022-11-22T10:22:53.496Z,97440.16
2022-11-22T10:25:33.448Z,97435.00
2022-11-22T10:28:21.847Z,97436.08
2022-11-22T10:31:00.305Z,97431.43
2022-11-22T10:33:44.201Z,97427.51
2022-11-22T10:36:25.454Z,97419.86
2022-11-22T10:39:07.392Z,97416.36
2022-11-22T10:41:47.603Z,97417.46
2022-11-22T10:44:30.939Z,97417.00
2022-11-22T10:47:12.014Z,97412.70
2022-11-22T10:49:51.456Z,97408.59
2022-11-22T10:52:30.891Z,97405.70
2022-11-22T10:55:19.183Z,97404.68
2022-11-22T10:57:59.450Z,97399.09
2022-11-22T11:00:33.613Z,97388.89
2022-11-22T11:03:24.674Z,97391.67
2022-11-22T11:11:50.783Z,97386.55
2022-11-22T11:14:29.891Z,97381.52
2022-11-22T11:17:04.362Z,97379.97
2022-11-22T11:19:42.999Z,97379.95
2022-11-22T11:22:42.676Z,97378.28
2022-11-22T11:25:33.597Z,97377.29
2022-11-22T11:28:08.867Z,97375.20
2022-11-22T11:30:46.532Z,97378.70
2022-11-22T11:33:35.319Z,97378.00
2022-11-22T11:36:12.026Z,97377.94
2022-11-22T11:38:57.660Z,97381.73
2022-11-22T11:41:37.488Z,97380.13
2022-11-22T11:44:32.173Z,97386.61
2022-11-22T11:47:06.102Z,97388.67
2022-11-22T11:49:39.052Z,97386.79
2022-11-22T11:52:17.558Z,97389.48
2022-11-22T11:54:52.105Z,97392.21
2022-11-22T11:57:28.576Z,97384.38
2022-11-22T12:00:06.555Z,97381.95
2022-11-22T13:27:08.908Z,97347.73
2022-11-22T13:29:43.044Z,97351.05
2022-11-22T13:32:24.014Z,97349.13
2022-11-22T13:35:26.707Z,97350.29
2022-11-22T13:38:01.013Z,97339.90
2022-11-22T13:40:35.076Z,97341.14
2022-11-22T13:43:44.025Z,97336.37
2022-11-22T13:46:45.632Z,97337.16
2022-11-22T13:49:35.276Z,97343.45
2022-11-22T13:52:34.998Z,97335.42
2022-11-22T13:55:41.719Z,97331.27
2022-11-22T13:58:56.348Z,97329.02
2022-11-22T14:01:58.755Z,97330.36
2022-11-22T14:04:38.462Z,97326.80
2022-11-22T14:07:35.318Z,97328.77
2022-11-22T14:10:29.158Z,97330.26
2022-11-22T14:13:15.378Z,97334.23
2022-11-22T14:15:59.433Z,97336.27
2022-11-22T14:19:01.462Z,97341.51
2022-11-22T14:21:50.304Z,97343.39
2022-11-22T14:24:34.990Z,97342.27
2022-11-22T14:27:14.462Z,97347.21
2022-11-22T14:30:14.369Z,97351.80
2022-11-22T14:32:51.726Z,97352.75
2022-11-22T14:35:31.405Z,97353.52
2022-11-22T14:38:30.913Z,97356.48
2022-11-22T14:41:38.281Z,97353.58
2022-11-22T14:44:14.973Z,97356.49
2022-11-22T14:46:55.360Z,97360.38
2022-11-22T14:49:38.680Z,97362.14
2022-11-22T14:52:20.127Z,97362.36
2022-11-22T14:54:55.790Z,97358.99
2022-11-22T14:57:29.064Z,97360.31
2022-11-22T15:00:11.820Z,97362.64
2022-11-22T15:03:14.410Z,97368.52
2022-11-22T15:09:13.691Z,97372.25
2022-11-22T15:09:46.640Z,97372.77
2022-11-22T15:12:43.320Z,97376.00
2022-11-22T15:57:31.066Z,97387.46
2022-11-22T16:00:10.323Z,97388.52
2022-11-22T16:02:50.943Z,97388.54
2022-11-22T16:06:05.266Z,97388.38
2022-11-22T16:08:31.069Z,97393.09
2022-11-22T16:11:07.850Z,97383.84
2022-11-22T16:13:41.815Z,97387.17
2022-11-22T16:16:28.948Z,97386.98
2022-11-22T16:19:26.708Z,97396.28
2022-11-22T16:22:03.738Z,97396.63
2022-11-22T16:24:38.842Z,97400.11
2022-11-22T16:27:17.026Z,97397.29
2022-11-22T16:29:55.447Z,97395.16
2022-11-22T16:32:27.722Z,97396.00
2022-11-22T16:35:27.677Z,97402.31
2022-11-22T16:37:54.285Z,97402.84
2022-11-22T16:40:31.651Z,97402.64
2022-11-22T16:43:09.499Z,97400.52
2022-11-22T16:45:41.844Z,97404.33
2022-11-22T16:48:31.250Z,97402.90
2022-11-22T16:51:09.767Z,97409.21
2022-11-22T16:53:46.282Z,97409.91
2022-11-22T16:56:22.936Z,97409.18
2022-11-22T16:58:58.260Z,97413.73
2022-11-22T17:01:36.160Z,97416.15
2022-11-22T17:04:12.020Z,97418.89
2022-11-22T17:06:44.872Z,97422.17
2022-11-22T17:09:17.408Z,97427.90
2022-11-22T17:11:53.367Z,97425.82
2022-11-22T17:14:29.408Z,97430.01
2022-11-22T17:17:02.642Z,97432.77
2022-11-22T17:19:53.569Z,97427.64
2022-11-22T17:22:30.758Z,97429.17
2022-11-22T17:25:03.653Z,97430.01
2022-11-22T17:27:37.154Z,97432.42
2022-11-22T17:30:12.975Z,97436.63
2022-11-22T17:32:45.966Z,97431.58
2022-11-22T17:35:18.901Z,97430.17
2022-11-22T17:37:51.072Z,97429.65
2022-11-22T17:40:25.325Z,97429.89
2022-11-22T17:42:58.810Z,97430.13
2022-11-22T17:45:33.164Z,97430.81
2022-11-22T17:48:07.306Z,97436.26
2022-11-22T17:50:39.223Z,97431.95
2022-11-22T17:53:11.071Z,97431.25
2022-11-22T17:56:09.351Z,97436.14
2022-11-22T17:58:40.213Z,97437.02
2022-11-22T18:01:14.342Z,97437.23
2022-11-22T18:03:48.437Z,97438.98
2022-11-22T18:06:26.498Z,97435.33
2022-11-22T18:09:00.448Z,97438.51
2022-11-22T18:11:34.129Z,97436.41
2022-11-22T18:14:06.961Z,97441.30
2022-11-22T18:16:41.147Z,97446.52
2022-11-22T18:19:16.247Z,97448.46
2022-11-22T18:21:49.476Z,97453.39
2022-11-22T18:24:22.979Z,97455.13
2022-11-22T18:26:56.494Z,97458.95
2022-11-22T18:29:42.589Z,97460.84
2022-11-22T18:32:16.194Z,97462.08
2022-11-22T18:34:50.688Z,97462.41
2022-11-22T18:37:25.775Z,97461.20
2022-11-22T18:39:58.228Z,97453.14
2022-11-22T18:42:34.693Z,97448.19
2022-11-22T18:45:08.793Z,97445.87
2022-11-22T18:47:45.779Z,97449.14
2022-11-22T18:50:19.936Z,97453.99
2022-11-22T18:52:52.134Z,97457.30
2022-11-22T18:55:25.171Z,97458.95
2022-11-22T18:57:59.440Z,97459.98
2022-11-22T19:00:33.874Z,97458.96
2022-11-22T19:03:11.148Z,97458.98
2022-11-22T19:05:44.758Z,97456.36
2022-11-22T19:08:17.912Z,97454.09
2022-11-22T19:10:59.941Z,97454.95
2022-11-22T19:13:38.466Z,97452.33
2022-11-22T19:16:12.510Z,97451.61
2022-11-22T19:18:46.736Z,97453.52
2022-11-22T19:21:28.116Z,97458.45
2022-11-22T19:24:05.493Z,97460.22
2022-11-22T19:26:39.079Z,97459.70
2022-11-22T19:29:13.639Z,97455.33
2022-11-22T19:31:47.208Z,97452.02
2022-11-22T19:34:19.575Z,97448.88
2022-11-22T19:36:51.907Z,97445.10
2022-11-22T19:39:28.361Z,97451.79
2022-11-22T19:42:00.620Z,97455.67
2022-11-22T19:44:38.006Z,97452.73
2022-11-22T19:47:11.293Z,97451.33
2022-11-22T19:49:43.619Z,97455.49
2022-11-22T19:52:16.958Z,97454.81
2022-11-22T19:54:50.610Z,97464.48
2022-11-22T19:57:24.914Z,97471.48
2022-11-22T20:00:00.050Z,97476.41
2022-11-22T20:02:34.018Z,97479.91
2022-11-22T20:05:12.544Z,97486.02
2022-11-22T20:07:48.801Z,97491.61
2022-11-22T20:10:22.004Z,97493.17
2022-11-22T20:12:54.661Z,97496.33
2022-11-22T20:15:29.192Z,97496.48
2022-11-22T20:18:04.329Z,97495.80
2022-11-22T20:20:36.252Z,97493.88
2022-11-22T20:23:09.776Z,97489.52
2022-11-22T20:25:43.815Z,97489.32
2022-11-22T20:28:18.605Z,97489.50
2022-11-22T20:30:53.004Z,97489.15
2022-11-22T20:33:26.563Z,97490.04
2022-11-22T20:36:06.974Z,97494.77
2022-11-22T20:38:43.228Z,97496.17
2022-11-22T20:41:18.914Z,97502.11
2022-11-22T20:43:52.778Z,97504.20
2022-11-22T20:46:26.804Z,97505.08
2022-11-22T20:49:00.888Z,97510.16
2022-11-22T20:51:36.045Z,97510.34
2022-11-22T20:54:10.145Z,97508.08
2022-11-22T20:56:43.034Z,97509.48
2022-11-22T20:59:16.118Z,97512.96
2022-11-22T21:01:49.327Z,97514.54
2022-11-22T21:04:23.263Z,97516.80
2022-11-22T21:06:58.319Z,97516.63
2022-11-22T21:09:31.295Z,97509.33
2022-11-22T21:12:03.991Z,97507.41
2022-11-22T21:14:35.980Z,97508.80
2022-11-22T21:17:37.165Z,97510.19
2022-11-22T21:20:01.306Z,97518.04
2022-11-22T21:22:35.090Z,97516.13
2022-11-22T21:25:10.422Z,97513.66
2022-11-22T21:27:43.957Z,97517.48
2022-11-22T21:30:19.389Z,97513.30
2022-11-22T21:32:52.176Z,97514.48
2022-11-22T21:35:25.436Z,97521.98
2022-11-22T21:38:01.218Z,97522.13
2022-11-22T21:40:34.216Z,97520.02
2022-11-22T21:43:10.547Z,97519.83
2022-11-22T21:45:43.009Z,97518.42
2022-11-22T21:48:17.702Z,97527.63
2022-11-22T21:50:52.057Z,97525.73
2022-11-22T21:53:27.717Z,97519.61
2022-11-22T21:56:04.049Z,97521.33
2022-11-22T21:58:36.680Z,97519.73
2022-11-22T22:01:14.055Z,97518.68
2022-11-22T22:03:48.417Z,97520.90
2022-11-22T22:06:21.120Z,97520.66
2022-11-22T22:08:53.320Z,97520.97
2022-11-22T22:11:27.652Z,97528.60
2022-11-22T22:13:59.834Z,97526.45
2022-11-22T22:16:34.046Z,97531.30
2022-11-22T22:19:10.497Z,97529.20
2022-11-22T22:21:42.412Z,97528.52
2022-11-22T22:24:17.015Z,97527.63
2022-11-22T22:26:49.727Z,97528.95
2022-11-22T22:29:23.397Z,97526.80
2022-11-22T22:31:57.676Z,97522.10
2022-11-22T22:34:32.459Z,97522.45
2022-11-22T22:37:04.565Z,97525.35
2022-11-22T22:39:39.100Z,97524.95
2022-11-22T22:42:11.722Z,97521.22
2022-11-22T22:44:44.563Z,97526.05
2022-11-22T22:47:17.921Z,97525.11
2022-11-22T22:49:51.480Z,97528.38
2022-11-22T22:52:23.292Z,97528.67
2022-11-22T22:54:56.007Z,97533.52
2022-11-22T22:57:29.280Z,97538.21
2022-11-22T23:00:02.610Z,97537.74
2022-11-22T23:02:35.382Z,97539.16
2022-11-22T23:05:10.369Z,97535.37
2022-11-22T23:07:44.021Z,97538.70
2022-11-22T23:10:16.983Z,97535.37
2022-11-22T23:12:49.940Z,97538.82
2022-11-22T23:15:43.875Z,97544.16
2022-11-22T23:18:14.636Z,97546.70
2022-11-22T23:20:50.119Z,97547.54
2022-11-22T23:23:23.450Z,97546.48
2022-11-22T23:26:03.149Z,97543.83
2022-11-22T23:28:38.182Z,97539.27
2022-11-22T23:31:15.666Z,97535.95
2022-11-22T23:33:50.411Z,97533.69
2022-11-22T23:36:25.314Z,97533.52
2022-11-22T23:38:57.890Z,97533.30
2022-11-22T23:41:33.480Z,97532.41
2022-11-22T23:44:07.659Z,97527.35
2022-11-22T23:46:40.894Z,97531.17
2022-11-22T23:49:15.478Z,97533.79
2022-11-22T23:51:50.402Z,97534.27
2022-11-22T23:54:22.396Z,97529.37
2022-11-22T23:56:56.535Z,97527.61
2022-11-22T23:59:28.854Z,97529.09
